sensor_id;sensor_type;location;lat;lon;timestamp;P1;durP1;ratioP1;P2;durP2;ratioP2
83988;SDS011;74037;42.062;25.598;2023-11-21T00:02:22;14.82;;;5.60;;
83988;SDS011;74037;42.062;25.598;2023-11-21T00:04:48;14.75;;;6.53;;
83988;SDS011;74037;42.062;25.598;2023-11-21T00:07:14;10.82;;;4.75;;
83988;SDS011;74037;42.062;25.598;2023-11-21T00:09:40;13.18;;;5.15;;
83988;SDS011;74037;42.062;25.598;2023-11-21T00:12:07;15.20;;;5.03;;
83988;SDS011;74037;42.062;25.598;2023-11-21T00:14:36;6.72;;;4.88;;
83988;SDS011;74037;42.062;25.598;2023-11-21T00:17:03;7.63;;;4.97;;
83988;SDS011;74037;42.062;25.598;2023-11-21T00:19:29;11.13;;;4.78;;
83988;SDS011;74037;42.062;25.598;2023-11-21T00:21:54;9.35;;;4.57;;
83988;SDS011;74037;42.062;25.598;2023-11-21T00:24:20;8.43;;;3.90;;
83988;SDS011;74037;42.062;25.598;2023-11-21T00:26:45;4.90;;;3.15;;
83988;SDS011;74037;42.062;25.598;2023-11-21T00:29:11;6.63;;;4.15;;
83988;SDS011;74037;42.062;25.598;2023-11-21T00:31:36;11.07;;;3.80;;
83988;SDS011;74037;42.062;25.598;2023-11-21T00:34:05;11.18;;;4.18;;
83988;SDS011;74037;42.062;25.598;2023-11-21T00:36:33;7.07;;;4.30;;
83988;SDS011;74037;42.062;25.598;2023-11-21T00:41:24;5.53;;;3.15;;
83988;SDS011;74037;42.062;25.598;2023-11-21T00:43:53;9.48;;;3.78;;
83988;SDS011;74037;42.062;25.598;2023-11-21T00:46:19;6.13;;;3.05;;
83988;SDS011;74037;42.062;25.598;2023-11-21T00:48:44;7.03;;;3.78;;
83988;SDS011;74037;42.062;25.598;2023-11-21T00:51:10;6.13;;;3.95;;
83988;SDS011;74037;42.062;25.598;2023-11-21T00:53:35;6.13;;;3.35;;
83988;SDS011;74037;42.062;25.598;2023-11-21T00:56:00;6.22;;;3.22;;
83988;SDS011;74037;42.062;25.598;2023-11-21T00:58:26;5.88;;;3.13;;
83988;SDS011;74037;42.062;25.598;2023-11-21T01:00:52;7.20;;;3.20;;
83988;SDS011;74037;42.062;25.598;2023-11-21T01:03:18;6.97;;;3.30;;
83988;SDS011;74037;42.062;25.598;2023-11-21T01:05:43;5.28;;;3.50;;
83988;SDS011;74037;42.062;25.598;2023-11-21T01:08:10;4.65;;;3.17;;
83988;SDS011;74037;42.062;25.598;2023-11-21T01:10:36;4.45;;;2.92;;
83988;SDS011;74037;42.062;25.598;2023-11-21T01:13:02;4.65;;;3.38;;
83988;SDS011;74037;42.062;25.598;2023-11-21T01:15:30;4.70;;;3.15;;
83988;SDS011;74037;42.062;25.598;2023-11-21T01:17:56;4.85;;;3.25;;
83988;SDS011;74037;42.062;25.598;2023-11-21T01:20:22;7.88;;;3.55;;
83988;SDS011;74037;42.062;25.598;2023-11-21T01:22:48;5.10;;;3.33;;
83988;SDS011;74037;42.062;25.598;2023-11-21T01:27:42;4.03;;;2.45;;
83988;SDS011;74037;42.062;25.598;2023-11-21T01:30:08;4.00;;;3.10;;
83988;SDS011;74037;42.062;25.598;2023-11-21T01:32:36;5.65;;;3.28;;
83988;SDS011;74037;42.062;25.598;2023-11-21T01:35:02;7.18;;;3.38;;
83988;SDS011;74037;42.062;25.598;2023-11-21T01:37:27;5.22;;;3.42;;
83988;SDS011;74037;42.062;25.598;2023-11-21T01:39:53;6.05;;;3.33;;
83988;SDS011;74037;42.062;25.598;2023-11-21T01:42:20;5.70;;;2.95;;
83988;SDS011;74037;42.062;25.598;2023-11-21T01:44:46;4.75;;;3.00;;
83988;SDS011;74037;42.062;25.598;2023-11-21T01:47:11;8.95;;;3.22;;
83988;SDS011;74037;42.062;25.598;2023-11-21T01:49:38;5.65;;;2.95;;
83988;SDS011;74037;42.062;25.598;2023-11-21T01:52:03;4.63;;;3.50;;
83988;SDS011;74037;42.062;25.598;2023-11-21T01:54:29;6.40;;;3.50;;
83988;SDS011;74037;42.062;25.598;2023-11-21T01:59:28;7.15;;;3.40;;
83988;SDS011;74037;42.062;25.598;2023-11-21T02:04:27;2.63;;;2.38;;
83988;SDS011;74037;42.062;25.598;2023-11-21T02:06:53;7.78;;;3.95;;
83988;SDS011;74037;42.062;25.598;2023-11-21T02:09:23;6.28;;;3.90;;
83988;SDS011;74037;42.062;25.598;2023-11-21T02:11:50;8.88;;;4.05;;
83988;SDS011;74037;42.062;25.598;2023-11-21T02:14:16;7.90;;;4.28;;
83988;SDS011;74037;42.062;25.598;2023-11-21T02:16:45;5.18;;;3.10;;
83988;SDS011;74037;42.062;25.598;2023-11-21T02:19:12;7.97;;;4.13;;
83988;SDS011;74037;42.062;25.598;2023-11-21T02:21:51;9.07;;;4.53;;
83988;SDS011;74037;42.062;25.598;2023-11-21T02:24:21;7.93;;;4.20;;
83988;SDS011;74037;42.062;25.598;2023-11-21T02:26:50;7.20;;;4.35;;
83988;SDS011;74037;42.062;25.598;2023-11-21T02:29:19;8.63;;;4.05;;
83988;SDS011;74037;42.062;25.598;2023-11-21T02:31:52;7.78;;;4.32;;
83988;SDS011;74037;42.062;25.598;2023-11-21T02:34:20;8.73;;;4.18;;
83988;SDS011;74037;42.062;25.598;2023-11-21T02:36:46;10.18;;;4.72;;
83988;SDS011;74037;42.062;25.598;2023-11-21T02:39:14;7.57;;;4.40;;
83988;SDS011;74037;42.062;25.598;2023-11-21T02:41:40;8.65;;;4.88;;
83988;SDS011;74037;42.062;25.598;2023-11-21T02:44:06;10.00;;;5.07;;
83988;SDS011;74037;42.062;25.598;2023-11-21T02:46:32;11.68;;;6.10;;
83988;SDS011;74037;42.062;25.598;2023-11-21T02:49:02;7.47;;;4.68;;
83988;SDS011;74037;42.062;25.598;2023-11-21T02:51:28;9.88;;;4.88;;
83988;SDS011;74037;42.062;25.598;2023-11-21T02:53:54;10.50;;;4.80;;
83988;SDS011;74037;42.062;25.598;2023-11-21T02:56:20;8.27;;;4.88;;
83988;SDS011;74037;42.062;25.598;2023-11-21T02:58:45;9.13;;;4.97;;
83988;SDS011;74037;42.062;25.598;2023-11-21T03:01:11;9.38;;;5.63;;
83988;SDS011;74037;42.062;25.598;2023-11-21T03:03:38;10.63;;;5.88;;
83988;SDS011;74037;42.062;25.598;2023-11-21T03:06:05;8.82;;;5.72;;
83988;SDS011;74037;42.062;25.598;2023-11-21T03:08:31;11.93;;;5.57;;
83988;SDS011;74037;42.062;25.598;2023-11-21T03:10:57;7.85;;;4.78;;
83988;SDS011;74037;42.062;25.598;2023-11-21T03:13:23;9.80;;;6.00;;
83988;SDS011;74037;42.062;25.598;2023-11-21T03:15:48;8.25;;;4.93;;
83988;SDS011;74037;42.062;25.598;2023-11-21T03:18:14;9.35;;;5.28;;
83988;SDS011;74037;42.062;25.598;2023-11-21T03:20:39;8.77;;;4.70;;
83988;SDS011;74037;42.062;25.598;2023-11-21T03:23:05;6.97;;;4.57;;
83988;SDS011;74037;42.062;25.598;2023-11-21T03:25:30;6.55;;;3.95;;
83988;SDS011;74037;42.062;25.598;2023-11-21T03:27:56;6.65;;;4.50;;
83988;SDS011;74037;42.062;25.598;2023-11-21T03:30:21;5.13;;;3.22;;
83988;SDS011;74037;42.062;25.598;2023-11-21T03:32:47;5.15;;;3.70;;
83988;SDS011;74037;42.062;25.598;2023-11-21T03:35:12;7.28;;;4.05;;
83988;SDS011;74037;42.062;25.598;2023-11-21T03:37:38;5.10;;;3.35;;
83988;SDS011;74037;42.062;25.598;2023-11-21T03:40:06;6.53;;;3.60;;
83988;SDS011;74037;42.062;25.598;2023-11-21T03:42:33;6.13;;;3.92;;
83988;SDS011;74037;42.062;25.598;2023-11-21T03:44:59;5.93;;;4.30;;
83988;SDS011;74037;42.062;25.598;2023-11-21T03:47:26;7.28;;;3.92;;
83988;SDS011;74037;42.062;25.598;2023-11-21T03:49:51;7.18;;;3.67;;
83988;SDS011;74037;42.062;25.598;2023-11-21T03:52:17;6.28;;;3.58;;
83988;SDS011;74037;42.062;25.598;2023-11-21T03:54:42;6.70;;;3.70;;
83988;SDS011;74037;42.062;25.598;2023-11-21T03:57:08;7.07;;;3.95;;
83988;SDS011;74037;42.062;25.598;2023-11-21T03:59:34;6.90;;;3.78;;
83988;SDS011;74037;42.062;25.598;2023-11-21T04:02:00;6.25;;;3.63;;
83988;SDS011;74037;42.062;25.598;2023-11-21T04:04:25;7.82;;;3.72;;
83988;SDS011;74037;42.062;25.598;2023-11-21T04:06:51;6.20;;;3.72;;
83988;SDS011;74037;42.062;25.598;2023-11-21T04:09:19;7.00;;;3.85;;
83988;SDS011;74037;42.062;25.598;2023-11-21T04:11:44;5.18;;;3.80;;
83988;SDS011;74037;42.062;25.598;2023-11-21T04:14:10;7.05;;;3.70;;
83988;SDS011;74037;42.062;25.598;2023-11-21T04:16:36;9.52;;;3.70;;
83988;SDS011;74037;42.062;25.598;2023-11-21T04:19:01;6.40;;;3.70;;
83988;SDS011;74037;42.062;25.598;2023-11-21T04:21:27;6.70;;;3.75;;
83988;SDS011;74037;42.062;25.598;2023-11-21T04:23:52;6.93;;;3.83;;
83988;SDS011;74037;42.062;25.598;2023-11-21T04:26:18;6.93;;;4.28;;
83988;SDS011;74037;42.062;25.598;2023-11-21T04:28:43;7.43;;;4.80;;
83988;SDS011;74037;42.062;25.598;2023-11-21T04:31:09;7.75;;;4.80;;
83988;SDS011;74037;42.062;25.598;2023-11-21T04:33:35;9.25;;;4.53;;
83988;SDS011;74037;42.062;25.598;2023-11-21T04:36:00;6.85;;;4.75;;
83988;SDS011;74037;42.062;25.598;2023-11-21T04:38:26;10.35;;;5.72;;
83988;SDS011;74037;42.062;25.598;2023-11-21T04:40:51;7.03;;;4.60;;
83988;SDS011;74037;42.062;25.598;2023-11-21T04:43:17;7.50;;;4.20;;
83988;SDS011;74037;42.062;25.598;2023-11-21T04:45:42;8.32;;;4.53;;
83988;SDS011;74037;42.062;25.598;2023-11-21T04:48:08;8.02;;;4.50;;
83988;SDS011;74037;42.062;25.598;2023-11-21T04:50:33;10.98;;;4.78;;
83988;SDS011;74037;42.062;25.598;2023-11-21T04:52:59;9.27;;;4.82;;
83988;SDS011;74037;42.062;25.598;2023-11-21T04:55:25;11.13;;;5.60;;
83988;SDS011;74037;42.062;25.598;2023-11-21T05:00:18;6.63;;;3.97;;
83988;SDS011;74037;42.062;25.598;2023-11-21T05:02:46;6.55;;;4.72;;
83988;SDS011;74037;42.062;25.598;2023-11-21T05:05:12;6.35;;;4.13;;
83988;SDS011;74037;42.062;25.598;2023-11-21T05:07:38;9.70;;;5.25;;
83988;SDS011;74037;42.062;25.598;2023-11-21T05:10:07;6.72;;;4.78;;
83988;SDS011;74037;42.062;25.598;2023-11-21T05:12:36;7.45;;;4.45;;
83988;SDS011;74037;42.062;25.598;2023-11-21T05:15:06;6.32;;;4.82;;
83988;SDS011;74037;42.062;25.598;2023-11-21T05:17:34;10.27;;;5.90;;
83988;SDS011;74037;42.062;25.598;2023-11-21T05:20:00;8.95;;;5.97;;
83988;SDS011;74037;42.062;25.598;2023-11-21T05:22:28;5.97;;;4.15;;
83988;SDS011;74037;42.062;25.598;2023-11-21T05:24:54;9.88;;;3.92;;
83988;SDS011;74037;42.062;25.598;2023-11-21T05:27:19;9.18;;;4.93;;
83988;SDS011;74037;42.062;25.598;2023-11-21T05:29:45;12.93;;;6.50;;
83988;SDS011;74037;42.062;25.598;2023-11-21T05:32:10;9.77;;;6.57;;
83988;SDS011;74037;42.062;25.598;2023-11-21T05:34:36;7.80;;;5.30;;
83988;SDS011;74037;42.062;25.598;2023-11-21T05:37:01;11.07;;;6.25;;
83988;SDS011;74037;42.062;25.598;2023-11-21T05:39:26;9.05;;;5.20;;
83988;SDS011;74037;42.062;25.598;2023-11-21T05:41:52;9.93;;;5.60;;
83988;SDS011;74037;42.062;25.598;2023-11-21T05:44:18;15.38;;;6.70;;
83988;SDS011;74037;42.062;25.598;2023-11-21T05:46:44;8.93;;;5.50;;
83988;SDS011;74037;42.062;25.598;2023-11-21T05:49:10;9.52;;;6.03;;
83988;SDS011;74037;42.062;25.598;2023-11-21T05:51:36;11.82;;;5.43;;
83988;SDS011;74037;42.062;25.598;2023-11-21T05:54:02;9.25;;;6.18;;
83988;SDS011;74037;42.062;25.598;2023-11-21T05:56:28;10.55;;;5.53;;
83988;SDS011;74037;42.062;25.598;2023-11-21T05:58:54;10.82;;;5.22;;
83988;SDS011;74037;42.062;25.598;2023-11-21T06:01:19;13.18;;;7.97;;
83988;SDS011;74037;42.062;25.598;2023-11-21T06:03:44;10.07;;;6.45;;
83988;SDS011;74037;42.062;25.598;2023-11-21T06:06:10;11.70;;;5.90;;
83988;SDS011;74037;42.062;25.598;2023-11-21T06:08:36;10.55;;;6.38;;
83988;SDS011;74037;42.062;25.598;2023-11-21T06:11:01;13.68;;;5.85;;
83988;SDS011;74037;42.062;25.598;2023-11-21T06:13:27;13.52;;;6.40;;
83988;SDS011;74037;42.062;25.598;2023-11-21T06:15:52;12.32;;;7.22;;
83988;SDS011;74037;42.062;25.598;2023-11-21T06:18:18;14.07;;;6.32;;
83988;SDS011;74037;42.062;25.598;2023-11-21T06:20:47;12.20;;;7.25;;
83988;SDS011;74037;42.062;25.598;2023-11-21T06:23:12;9.63;;;7.10;;
83988;SDS011;74037;42.062;25.598;2023-11-21T06:25:39;15.70;;;8.15;;
83988;SDS011;74037;42.062;25.598;2023-11-21T06:28:05;12.45;;;7.45;;
83988;SDS011;74037;42.062;25.598;2023-11-21T06:30:31;12.30;;;7.30;;
83988;SDS011;74037;42.062;25.598;2023-11-21T06:32:57;10.38;;;6.88;;
83988;SDS011;74037;42.062;25.598;2023-11-21T06:35:22;10.27;;;5.95;;
83988;SDS011;74037;42.062;25.598;2023-11-21T06:37:48;12.68;;;6.93;;
83988;SDS011;74037;42.062;25.598;2023-11-21T06:40:13;14.95;;;6.80;;
83988;SDS011;74037;42.062;25.598;2023-11-21T06:42:40;11.05;;;7.40;;
83988;SDS011;74037;42.062;25.598;2023-11-21T06:45:06;11.88;;;7.53;;
83988;SDS011;74037;42.062;25.598;2023-11-21T06:47:32;12.18;;;7.20;;
83988;SDS011;74037;42.062;25.598;2023-11-21T06:49:58;10.88;;;6.65;;
83988;SDS011;74037;42.062;25.598;2023-11-21T06:52:25;17.13;;;9.40;;
83988;SDS011;74037;42.062;25.598;2023-11-21T06:54:51;15.57;;;9.23;;
83988;SDS011;74037;42.062;25.598;2023-11-21T06:57:16;11.27;;;6.35;;
83988;SDS011;74037;42.062;25.598;2023-11-21T06:59:42;11.68;;;5.70;;
83988;SDS011;74037;42.062;25.598;2023-11-21T07:02:08;8.52;;;5.90;;
83988;SDS011;74037;42.062;25.598;2023-11-21T07:04:34;9.55;;;6.32;;
83988;SDS011;74037;42.062;25.598;2023-11-21T07:07:01;8.25;;;6.10;;
83988;SDS011;74037;42.062;25.598;2023-11-21T07:09:27;10.00;;;5.72;;
83988;SDS011;74037;42.062;25.598;2023-11-21T07:11:53;9.05;;;6.35;;
83988;SDS011;74037;42.062;25.598;2023-11-21T07:14:19;13.55;;;7.25;;
83988;SDS011;74037;42.062;25.598;2023-11-21T07:16:45;6.93;;;5.00;;
83988;SDS011;74037;42.062;25.598;2023-11-21T07:19:11;7.05;;;4.40;;
83988;SDS011;74037;42.062;25.598;2023-11-21T07:21:37;6.45;;;5.13;;
83988;SDS011;74037;42.062;25.598;2023-11-21T07:24:04;7.68;;;4.65;;
83988;SDS011;74037;42.062;25.598;2023-11-21T07:26:34;9.80;;;4.68;;
83988;SDS011;74037;42.062;25.598;2023-11-21T07:29:00;8.43;;;4.32;;
83988;SDS011;74037;42.062;25.598;2023-11-21T07:31:27;6.00;;;4.78;;
83988;SDS011;74037;42.062;25.598;2023-11-21T07:33:54;9.88;;;5.75;;
83988;SDS011;74037;42.062;25.598;2023-11-21T07:36:19;9.10;;;4.93;;
83988;SDS011;74037;42.062;25.598;2023-11-21T07:38:47;8.43;;;4.82;;
83988;SDS011;74037;42.062;25.598;2023-11-21T07:41:13;8.18;;;4.72;;
83988;SDS011;74037;42.062;25.598;2023-11-21T07:43:43;8.88;;;5.32;;
83988;SDS011;74037;42.062;25.598;2023-11-21T07:46:09;10.10;;;5.32;;
83988;SDS011;74037;42.062;25.598;2023-11-21T07:48:35;10.65;;;5.93;;
83988;SDS011;74037;42.062;25.598;2023-11-21T07:51:01;10.88;;;5.35;;
83988;SDS011;74037;42.062;25.598;2023-11-21T07:53:28;7.78;;;5.20;;
83988;SDS011;74037;42.062;25.598;2023-11-21T07:55:58;12.65;;;5.47;;
83988;SDS011;74037;42.062;25.598;2023-11-21T07:58:27;16.67;;;6.32;;
83988;SDS011;74037;42.062;25.598;2023-11-21T08:00:53;7.47;;;5.60;;
83988;SDS011;74037;42.062;25.598;2023-11-21T08:03:18;10.93;;;6.03;;
83988;SDS011;74037;42.062;25.598;2023-11-21T08:05:44;11.10;;;6.43;;
83988;SDS011;74037;42.062;25.598;2023-11-21T08:08:09;10.55;;;6.72;;
83988;SDS011;74037;42.062;25.598;2023-11-21T08:10:35;10.63;;;6.80;;
83988;SDS011;74037;42.062;25.598;2023-11-21T08:13:01;11.20;;;6.97;;
83988;SDS011;74037;42.062;25.598;2023-11-21T08:15:27;15.98;;;7.95;;
83988;SDS011;74037;42.062;25.598;2023-11-21T08:17:52;12.65;;;7.63;;
83988;SDS011;74037;42.062;25.598;2023-11-21T08:20:18;14.57;;;7.93;;
83988;SDS011;74037;42.062;25.598;2023-11-21T08:22:44;16.02;;;8.48;;
83988;SDS011;74037;42.062;25.598;2023-11-21T08:25:10;16.80;;;8.25;;
83988;SDS011;74037;42.062;25.598;2023-11-21T08:27:36;16.02;;;9.23;;
83988;SDS011;74037;42.062;25.598;2023-11-21T08:30:04;14.07;;;8.30;;
83988;SDS011;74037;42.062;25.598;2023-11-21T08:32:30;16.88;;;8.98;;
83988;SDS011;74037;42.062;25.598;2023-11-21T08:34:58;17.50;;;9.88;;
83988;SDS011;74037;42.062;25.598;2023-11-21T08:37:23;27.38;;;13.60;;
83988;SDS011;74037;42.062;25.598;2023-11-21T08:39:49;18.70;;;10.73;;
83988;SDS011;74037;42.062;25.598;2023-11-21T08:42:15;22.88;;;12.60;;
83988;SDS011;74037;42.062;25.598;2023-11-21T08:44:40;19.88;;;11.65;;
83988;SDS011;74037;42.062;25.598;2023-11-21T08:47:06;23.02;;;10.90;;
83988;SDS011;74037;42.062;25.598;2023-11-21T08:49:32;21.27;;;12.38;;
83988;SDS011;74037;42.062;25.598;2023-11-21T08:51:57;19.42;;;10.93;;
83988;SDS011;74037;42.062;25.598;2023-11-21T08:54:26;18.10;;;11.13;;
83988;SDS011;74037;42.062;25.598;2023-11-21T08:56:52;15.90;;;10.10;;
83988;SDS011;74037;42.062;25.598;2023-11-21T08:59:18;16.58;;;9.98;;
83988;SDS011;74037;42.062;25.598;2023-11-21T09:01:45;14.63;;;9.20;;
83988;SDS011;74037;42.062;25.598;2023-11-21T09:04:10;15.82;;;10.07;;
83988;SDS011;74037;42.062;25.598;2023-11-21T09:06:36;16.55;;;10.20;;
83988;SDS011;74037;42.062;25.598;2023-11-21T09:09:01;16.70;;;10.60;;
83988;SDS011;74037;42.062;25.598;2023-11-21T09:11:27;16.38;;;9.65;;
83988;SDS011;74037;42.062;25.598;2023-11-21T09:13:58;12.65;;;8.80;;
83988;SDS011;74037;42.062;25.598;2023-11-21T09:16:24;16.92;;;9.75;;
83988;SDS011;74037;42.062;25.598;2023-11-21T09:18:50;14.23;;;8.75;;
83988;SDS011;74037;42.062;25.598;2023-11-21T09:21:15;10.52;;;7.53;;
83988;SDS011;74037;42.062;25.598;2023-11-21T09:23:40;10.23;;;7.10;;
83988;SDS011;74037;42.062;25.598;2023-11-21T09:26:09;9.75;;;7.15;;
83988;SDS011;74037;42.062;25.598;2023-11-21T09:28:35;13.20;;;7.15;;
83988;SDS011;74037;42.062;25.598;2023-11-21T09:31:02;11.95;;;8.45;;
83988;SDS011;74037;42.062;25.598;2023-11-21T09:33:29;10.50;;;7.20;;
83988;SDS011;74037;42.062;25.598;2023-11-21T09:35:56;11.75;;;7.20;;
83988;SDS011;74037;42.062;25.598;2023-11-21T09:38:22;11.82;;;7.70;;
83988;SDS011;74037;42.062;25.598;2023-11-21T09:40:48;11.07;;;8.25;;
83988;SDS011;74037;42.062;25.598;2023-11-21T09:43:17;12.57;;;7.80;;
83988;SDS011;74037;42.062;25.598;2023-11-21T09:45:47;11.20;;;7.65;;
83988;SDS011;74037;42.062;25.598;2023-11-21T09:48:24;12.20;;;7.78;;
83988;SDS011;74037;42.062;25.598;2023-11-21T09:50:51;11.38;;;7.93;;
83988;SDS011;74037;42.062;25.598;2023-11-21T09:53:19;9.32;;;6.38;;
83988;SDS011;74037;42.062;25.598;2023-11-21T09:55:47;11.38;;;7.90;;
83988;SDS011;74037;42.062;25.598;2023-11-21T09:58:16;8.50;;;6.90;;
83988;SDS011;74037;42.062;25.598;2023-11-21T10:00:45;10.02;;;7.28;;
83988;SDS011;74037;42.062;25.598;2023-11-21T10:03:12;9.48;;;6.70;;
83988;SDS011;74037;42.062;25.598;2023-11-21T10:05:39;11.85;;;6.40;;
83988;SDS011;74037;42.062;25.598;2023-11-21T10:08:09;9.68;;;7.20;;
83988;SDS011;74037;42.062;25.598;2023-11-21T10:10:35;10.55;;;6.82;;
83988;SDS011;74037;42.062;25.598;2023-11-21T10:13:11;10.60;;;6.90;;
83988;SDS011;74037;42.062;25.598;2023-11-21T10:15:41;10.77;;;6.90;;
83988;SDS011;74037;42.062;25.598;2023-11-21T10:18:09;11.43;;;7.40;;
83988;SDS011;74037;42.062;25.598;2023-11-21T10:20:35;9.80;;;6.35;;
83988;SDS011;74037;42.062;25.598;2023-11-21T10:23:03;8.77;;;7.05;;
83988;SDS011;74037;42.062;25.598;2023-11-21T10:25:29;10.80;;;8.07;;
83988;SDS011;74037;42.062;25.598;2023-11-21T10:27:59;13.15;;;8.50;;
83988;SDS011;74037;42.062;25.598;2023-11-21T10:30:33;11.48;;;8.07;;
83988;SDS011;74037;42.062;25.598;2023-11-21T10:33:06;13.98;;;8.50;;
83988;SDS011;74037;42.062;25.598;2023-11-21T10:38:07;12.85;;;7.68;;
83988;SDS011;74037;42.062;25.598;2023-11-21T10:40:37;10.73;;;6.97;;
83988;SDS011;74037;42.062;25.598;2023-11-21T10:43:07;12.05;;;7.05;;
83988;SDS011;74037;42.062;25.598;2023-11-21T10:45:38;10.52;;;7.65;;
83988;SDS011;74037;42.062;25.598;2023-11-21T10:48:07;10.25;;;6.88;;
83988;SDS011;74037;42.062;25.598;2023-11-21T10:50:36;9.98;;;6.47;;
83988;SDS011;74037;42.062;25.598;2023-11-21T10:53:05;9.38;;;6.95;;
83988;SDS011;74037;42.062;25.598;2023-11-21T10:55:31;12.10;;;6.75;;
83988;SDS011;74037;42.062;25.598;2023-11-21T10:58:04;13.75;;;8.20;;
83988;SDS011;74037;42.062;25.598;2023-11-21T11:00:31;11.32;;;7.18;;
83988;SDS011;74037;42.062;25.598;2023-11-21T11:02:57;8.77;;;6.15;;
83988;SDS011;74037;42.062;25.598;2023-11-21T11:05:24;8.85;;;5.63;;
83988;SDS011;74037;42.062;25.598;2023-11-21T11:07:52;7.43;;;5.18;;
83988;SDS011;74037;42.062;25.598;2023-11-21T11:10:26;6.93;;;4.85;;
83988;SDS011;74037;42.062;25.598;2023-11-21T11:12:53;16.35;;;9.55;;
83988;SDS011;74037;42.062;25.598;2023-11-21T11:15:19;7.00;;;5.30;;
83988;SDS011;74037;42.062;25.598;2023-11-21T11:17:45;8.23;;;5.20;;
83988;SDS011;74037;42.062;25.598;2023-11-21T11:20:13;7.35;;;4.63;;
83988;SDS011;74037;42.062;25.598;2023-11-21T11:28:04;5.85;;;4.43;;
83988;SDS011;74037;42.062;25.598;2023-11-21T11:38:59;5.90;;;4.18;;
83988;SDS011;74037;42.062;25.598;2023-11-21T11:43:57;5.75;;;4.53;;
83988;SDS011;74037;42.062;25.598;2023-11-21T11:46:40;6.70;;;4.45;;
83988;SDS011;74037;42.062;25.598;2023-11-21T11:49:07;6.22;;;4.32;;
83988;SDS011;74037;42.062;25.598;2023-11-21T11:51:33;6.90;;;4.68;;
83988;SDS011;74037;42.062;25.598;2023-11-21T11:56:30;6.30;;;3.90;;
83988;SDS011;74037;42.062;25.598;2023-11-21T11:58:59;5.25;;;4.22;;
83988;SDS011;74037;42.062;25.598;2023-11-21T12:01:34;6.80;;;4.28;;
83988;SDS011;74037;42.062;25.598;2023-11-21T12:06:45;6.78;;;3.95;;
83988;SDS011;74037;42.062;25.598;2023-11-21T12:09:23;6.22;;;4.13;;
83988;SDS011;74037;42.062;25.598;2023-11-21T12:11:49;7.47;;;3.42;;
83988;SDS011;74037;42.062;25.598;2023-11-21T12:14:16;5.35;;;3.35;;
83988;SDS011;74037;42.062;25.598;2023-11-21T12:16:42;5.00;;;3.83;;
83988;SDS011;74037;42.062;25.598;2023-11-21T12:19:09;8.05;;;3.85;;
83988;SDS011;74037;42.062;25.598;2023-11-21T12:21:36;8.25;;;4.80;;
83988;SDS011;74037;42.062;25.598;2023-11-21T12:24:02;7.22;;;4.13;;
83988;SDS011;74037;42.062;25.598;2023-11-21T12:26:28;7.47;;;3.95;;
83988;SDS011;74037;42.062;25.598;2023-11-21T12:28:54;5.30;;;3.78;;
83988;SDS011;74037;42.062;25.598;2023-11-21T12:31:25;6.88;;;3.75;;
83988;SDS011;74037;42.062;25.598;2023-11-21T12:33:50;7.07;;;3.75;;
83988;SDS011;74037;42.062;25.598;2023-11-21T12:36:16;5.60;;;3.78;;
83988;SDS011;74037;42.062;25.598;2023-11-21T12:38:42;5.78;;;3.83;;
83988;SDS011;74037;42.062;25.598;2023-11-21T12:41:08;6.32;;;4.13;;
83988;SDS011;74037;42.062;25.598;2023-11-21T12:43:35;5.80;;;3.95;;
83988;SDS011;74037;42.062;25.598;2023-11-21T12:46:04;6.75;;;4.13;;
83988;SDS011;74037;42.062;25.598;2023-11-21T12:48:36;9.80;;;4.55;;
83988;SDS011;74037;42.062;25.598;2023-11-21T12:51:04;7.07;;;5.10;;
83988;SDS011;74037;42.062;25.598;2023-11-21T12:53:32;8.65;;;4.43;;
83988;SDS011;74037;42.062;25.598;2023-11-21T12:56:02;10.25;;;4.45;;
83988;SDS011;74037;42.062;25.598;2023-11-21T12:58:31;10.82;;;4.47;;
83988;SDS011;74037;42.062;25.598;2023-11-21T13:00:58;9.45;;;5.40;;
83988;SDS011;74037;42.062;25.598;2023-11-21T13:03:24;7.40;;;5.68;;
83988;SDS011;74037;42.062;25.598;2023-11-21T13:05:51;8.13;;;4.57;;
83988;SDS011;74037;42.062;25.598;2023-11-21T13:08:24;7.35;;;4.60;;
83988;SDS011;74037;42.062;25.598;2023-11-21T13:10:51;8.32;;;4.63;;
83988;SDS011;74037;42.062;25.598;2023-11-21T13:13:19;8.52;;;5.05;;
83988;SDS011;74037;42.062;25.598;2023-11-21T13:18:40;15.35;;;10.30;;
83988;SDS011;74037;42.062;25.598;2023-11-21T13:21:08;8.95;;;5.72;;
83988;SDS011;74037;42.062;25.598;2023-11-21T13:23:41;8.32;;;5.43;;
83988;SDS011;74037;42.062;25.598;2023-11-21T13:26:07;7.28;;;5.30;;
83988;SDS011;74037;42.062;25.598;2023-11-21T13:28:34;9.00;;;5.80;;
83988;SDS011;74037;42.062;25.598;2023-11-21T13:31:01;12.02;;;6.20;;
83988;SDS011;74037;42.062;25.598;2023-11-21T13:33:47;10.18;;;6.03;;
83988;SDS011;74037;42.062;25.598;2023-11-21T13:36:24;11.15;;;5.97;;
83988;SDS011;74037;42.062;25.598;2023-11-21T13:38:50;9.55;;;6.00;;
83988;SDS011;74037;42.062;25.598;2023-11-21T13:41:17;9.07;;;5.32;;
83988;SDS011;74037;42.062;25.598;2023-11-21T13:43:43;7.90;;;5.40;;
83988;SDS011;74037;42.062;25.598;2023-11-21T13:46:17;9.65;;;5.40;;
83988;SDS011;74037;42.062;25.598;2023-11-21T13:48:47;10.05;;;5.65;;
83988;SDS011;74037;42.062;25.598;2023-11-21T13:51:22;11.73;;;6.00;;
83988;SDS011;74037;42.062;25.598;2023-11-21T13:53:56;7.85;;;5.70;;
83988;SDS011;74037;42.062;25.598;2023-11-21T13:56:22;7.18;;;5.20;;
83988;SDS011;74037;42.062;25.598;2023-11-21T13:58:49;6.38;;;4.53;;
83988;SDS011;74037;42.062;25.598;2023-11-21T14:01:26;4.45;;;3.50;;
83988;SDS011;74037;42.062;25.598;2023-11-21T14:03:55;3.72;;;3.20;;
83988;SDS011;74037;42.062;25.598;2023-11-21T14:06:45;4.60;;;2.95;;
83988;SDS011;74037;42.062;25.598;2023-11-21T14:09:16;3.30;;;3.00;;
83988;SDS011;74037;42.062;25.598;2023-11-21T14:11:53;3.53;;;3.08;;
83988;SDS011;74037;42.062;25.598;2023-11-21T14:14:24;3.78;;;3.00;;
83988;SDS011;74037;42.062;25.598;2023-11-21T14:16:51;3.50;;;3.20;;
83988;SDS011;74037;42.062;25.598;2023-11-21T14:19:17;5.32;;;2.80;;
83988;SDS011;74037;42.062;25.598;2023-11-21T14:21:46;4.20;;;3.63;;
83988;SDS011;74037;42.062;25.598;2023-11-21T14:24:14;5.93;;;3.88;;
83988;SDS011;74037;42.062;25.598;2023-11-21T14:26:42;5.32;;;3.50;;
83988;SDS011;74037;42.062;25.598;2023-11-21T14:29:10;4.10;;;3.42;;
83988;SDS011;74037;42.062;25.598;2023-11-21T14:31:39;14.07;;;8.63;;
83988;SDS011;74037;42.062;25.598;2023-11-21T14:34:04;10.07;;;7.15;;
83988;SDS011;74037;42.062;25.598;2023-11-21T14:36:32;11.38;;;7.85;;
83988;SDS011;74037;42.062;25.598;2023-11-21T14:38:58;12.85;;;8.52;;
83988;SDS011;74037;42.062;25.598;2023-11-21T14:41:23;13.98;;;8.98;;
83988;SDS011;74037;42.062;25.598;2023-11-21T14:43:50;15.40;;;9.35;;
83988;SDS011;74037;42.062;25.598;2023-11-21T14:46:16;20.30;;;11.88;;
83988;SDS011;74037;42.062;25.598;2023-11-21T14:48:44;24.92;;;12.40;;
83988;SDS011;74037;42.062;25.598;2023-11-21T14:51:24;21.15;;;12.05;;
83988;SDS011;74037;42.062;25.598;2023-11-21T14:53:56;20.05;;;11.07;;
83988;SDS011;74037;42.062;25.598;2023-11-21T14:56:33;19.38;;;9.80;;
83988;SDS011;74037;42.062;25.598;2023-11-21T14:59:00;22.40;;;11.32;;
83988;SDS011;74037;42.062;25.598;2023-11-21T15:01:41;13.55;;;9.63;;
83988;SDS011;74037;42.062;25.598;2023-11-21T15:04:20;18.80;;;9.68;;
83988;SDS011;74037;42.062;25.598;2023-11-21T15:06:59;19.25;;;11.38;;
83988;SDS011;74037;42.062;25.598;2023-11-21T15:09:25;21.50;;;12.07;;